ABX weather

Albury Airport
Albury, New South Wales, Australia

Public forecast

Using degrees Celsius for public forecast. Weather courtesy of forecast.io.

METAR (pilot weather report)

Retrieved 2018/08/15 05:00 UTC (52 minutes ago):

YMAY 150500Z AUTO 01005KT 9999 // SCT120 13/08 Q1009

TAF (pilot weather forecast)

Closest forecast is Wangaratta Airport, 37.8 nm (70.0 km) WSW. Retrieved 2018/08/15 02:03 UTC (4 hours ago):

TAF YWGT 150037Z 1502/1514 33010KT 9999 -SHRA SCT015 BKN030 FM151000 29008KT 9999 FEW012 BKN030 INTER 1502/1503 4000 SHRA BKN015 INTER 1505/1512 4000 SHRA BKN012